Time;durP1;ratioP1;P1;durP2;ratioP2;P2;SDS_P1;SDS_P2;PMS_P1;PMS_P2;Temp;Humidity;BMP_temperature;BMP_pressure;BME280_temperature;BME280_humidity;BME280_pressure;Samples;Min_cycle;Max_cycle;Signal;HPM_P1;HPM_P2
2022/11/30 00:01:13;;;;;;;56.73;29.70;;;;;;;;;;5056406;28;20212;-41
2022/11/30 00:03:39;;;;;;;62.30;24.30;;;;;;;;;;5057626;28;20231;-41
2022/11/30 00:06:08;;;;;;;56.17;23.23;;;;;;;;;;5057091;28;20211;-43
2022/11/30 00:08:35;;;;;;;40.47;17.63;;;;;;;;;;5057369;28;20219;-43
2022/11/30 00:11:14;;;;;;;46.03;20.27;;;;;;;;;;5057259;28;20554;-42
2022/11/30 00:13:40;;;;;;;38.10;18.23;;;;;;;;;;5057483;28;20254;-42
2022/11/30 00:16:08;;;;;;;35.40;18.10;;;;;;;;;;5057041;28;20211;-42
2022/11/30 00:18:36;;;;;;;27.47;14.53;;;;;;;;;;5056998;28;20273;-42
2022/11/30 00:21:07;;;;;;;33.53;16.80;;;;;;;;;;5056879;28;20243;-40
2022/11/30 00:23:36;;;;;;;25.57;14.77;;;;;;;;;;5057007;28;20189;-42
2022/11/30 00:26:04;;;;;;;31.10;17.90;;;;;;;;;;5056622;28;20223;-41
2022/11/30 00:28:32;;;;;;;35.27;18.37;;;;;;;;;;5056564;28;20287;-41
2022/11/30 00:31:04;;;;;;;38.30;17.90;;;;;;;;;;5056650;28;20696;-41
2022/11/30 00:33:32;;;;;;;31.07;16.03;;;;;;;;;;5056871;28;20548;-42
2022/11/30 00:36:04;;;;;;;28.77;14.73;;;;;;;;;;5056713;28;20200;-42
2022/11/30 00:38:32;;;;;;;27.27;14.57;;;;;;;;;;5056717;28;20206;-41
2022/11/30 00:41:00;;;;;;;25.13;14.53;;;;;;;;;;5056409;28;20204;-42
2022/11/30 00:43:27;;;;;;;27.10;14.83;;;;;;;;;;5056845;28;20239;-41
2022/11/30 00:45:56;;;;;;;26.30;14.83;;;;;;;;;;5056889;28;20561;-41
2022/11/30 00:48:23;;;;;;;26.27;15.17;;;;;;;;;;5056812;28;20269;-42
2022/11/30 00:50:51;;;;;;;28.23;16.07;;;;;;;;;;5055457;28;20306;-41
2022/11/30 00:53:18;;;;;;;31.57;16.43;;;;;;;;;;5056547;28;20214;-41
2022/11/30 00:55:46;;;;;;;27.97;15.97;;;;;;;;;;5057025;28;20204;-42
2022/11/30 00:58:13;;;;;;;28.63;16.13;;;;;;;;;;5056246;28;20208;-40
2022/11/30 01:00:40;;;;;;;32.57;15.80;;;;;;;;;;5056050;28;20212;-40
2022/11/30 01:03:08;;;;;;;29.97;15.83;;;;;;;;;;5056220;28;20204;-41
2022/11/30 01:05:35;;;;;;;32.70;17.13;;;;;;;;;;5056221;28;20200;-41
2022/11/30 01:08:03;;;;;;;30.07;16.13;;;;;;;;;;5055918;28;20675;-41
2022/11/30 01:10:32;;;;;;;32.20;16.73;;;;;;;;;;5056413;28;20228;-41
2022/11/30 01:12:59;;;;;;;31.77;16.83;;;;;;;;;;5055169;28;20204;-41
2022/11/30 01:15:26;;;;;;;30.47;17.30;;;;;;;;;;5055890;28;20629;-42
2022/11/30 01:17:53;;;;;;;29.07;15.77;;;;;;;;;;5055618;28;20200;-41
2022/11/30 01:20:20;;;;;;;31.80;17.20;;;;;;;;;;5055755;28;20218;-43
2022/11/30 01:22:47;;;;;;;33.07;18.53;;;;;;;;;;5055720;28;20554;-41
2022/11/30 01:25:14;;;;;;;36.80;19.07;;;;;;;;;;5055334;28;20204;-45
2022/11/30 01:27:41;;;;;;;39.03;19.20;;;;;;;;;;5055408;28;20624;-42
2022/11/30 01:30:08;;;;;;;35.73;17.93;;;;;;;;;;5055402;28;20211;-41
2022/11/30 01:32:36;;;;;;;33.40;17.67;;;;;;;;;;5056571;28;20200;-41
2022/11/30 01:35:04;;;;;;;33.73;16.97;;;;;;;;;;5055889;28;20231;-41
2022/11/30 01:37:30;;;;;;;30.60;15.73;;;;;;;;;;5055509;28;20218;-42
2022/11/30 01:39:57;;;;;;;32.27;15.80;;;;;;;;;;5054951;28;20200;-42
2022/11/30 01:42:25;;;;;;;35.50;16.70;;;;;;;;;;5055411;28;20196;-40
2022/11/30 01:44:57;;;;;;;35.60;17.40;;;;;;;;;;5055405;28;20266;-41
2022/11/30 01:47:48;;;;;;;35.93;17.53;;;;;;;;;;5047614;28;20626;-42
2022/11/30 01:50:16;;;;;;;34.90;16.93;;;;;;;;;;5007988;28;20218;-41
2022/11/30 01:52:49;;;;;;;33.47;17.27;;;;;;;;;;5014870;28;20292;-41
2022/11/30 01:55:24;;;;;;;38.87;17.40;;;;;;;;;;5015429;28;20209;-43
2022/11/30 01:58:01;;;;;;;38.07;17.33;;;;;;;;;;5015659;28;20284;-42
2022/11/30 02:00:28;;;;;;;40.33;17.40;;;;;;;;;;5015721;28;20244;-41
2022/11/30 02:03:01;;;;;;;42.87;18.13;;;;;;;;;;5015613;28;20212;-42
2022/11/30 02:05:29;;;;;;;41.07;18.03;;;;;;;;;;5015516;28;20205;-42
2022/11/30 02:07:55;;;;;;;46.33;18.33;;;;;;;;;;5015473;28;20206;-42
2022/11/30 02:10:31;;;;;;;39.60;18.47;;;;;;;;;;5015992;28;20575;-41
2022/11/30 02:12:58;;;;;;;42.10;17.60;;;;;;;;;;5015788;28;20205;-42
2022/11/30 02:15:29;;;;;;;41.30;16.97;;;;;;;;;;5015673;28;20216;-42
2022/11/30 02:18:14;;;;;;;43.60;17.97;;;;;;;;;;5015249;28;20213;-42
2022/11/30 02:20:58;;;;;;;45.67;18.13;;;;;;;;;;5014382;28;20224;-41
2022/11/30 02:23:40;;;;;;;39.00;17.30;;;;;;;;;;5014074;28;20213;-41
2022/11/30 02:26:46;;;;;;;44.23;17.97;;;;;;;;;;5014389;28;20205;-41
2022/11/30 02:29:21;;;;;;;43.00;16.90;;;;;;;;;;5015250;28;20201;-41
2022/11/30 02:32:01;;;;;;;41.00;17.33;;;;;;;;;;5015632;28;20239;-41
2022/11/30 02:34:29;;;;;;;43.10;16.60;;;;;;;;;;5014370;28;20208;-41
2022/11/30 02:36:58;;;;;;;41.83;16.43;;;;;;;;;;5014272;28;20205;-42
2022/11/30 02:39:24;;;;;;;36.30;15.77;;;;;;;;;;5014020;28;20572;-41
2022/11/30 02:41:52;;;;;;;45.90;16.90;;;;;;;;;;5014919;28;20216;-40
2022/11/30 02:44:20;;;;;;;41.03;15.77;;;;;;;;;;5014818;28;20288;-41
2022/11/30 02:47:23;;;;;;;44.07;16.87;;;;;;;;;;5015075;28;20536;-41
2022/11/30 02:50:17;;;;;;;36.70;15.23;;;;;;;;;;5014464;28;20223;-41
2022/11/30 02:52:44;;;;;;;49.73;16.77;;;;;;;;;;5008311;28;20228;-42
2022/11/30 02:55:17;;;;;;;41.27;16.40;;;;;;;;;;5014418;28;20197;-41
2022/11/30 02:57:44;;;;;;;36.83;15.50;;;;;;;;;;5014827;28;20198;-41
2022/11/30 03:00:12;;;;;;;39.77;14.53;;;;;;;;;;5015247;28;20213;-41
2022/11/30 03:02:39;;;;;;;37.70;15.07;;;;;;;;;;5014784;28;20208;-41
2022/11/30 03:05:07;;;;;;;42.33;16.03;;;;;;;;;;5014745;28;20518;-42
2022/11/30 03:07:34;;;;;;;39.13;15.60;;;;;;;;;;5014912;28;20244;-41
2022/11/30 03:10:02;;;;;;;35.43;14.27;;;;;;;;;;5014889;28;20205;-42
2022/11/30 03:12:29;;;;;;;43.47;16.33;;;;;;;;;;5014412;28;20229;-41
2022/11/30 03:14:55;;;;;;;38.17;15.23;;;;;;;;;;5015029;28;20202;-41
2022/11/30 03:17:23;;;;;;;38.90;15.67;;;;;;;;;;5014577;28;20201;-41
2022/11/30 03:19:49;;;;;;;31.33;13.63;;;;;;;;;;5015091;28;20201;-41
2022/11/30 03:22:17;;;;;;;41.63;15.40;;;;;;;;;;5014517;28;20309;-42
2022/11/30 03:24:44;;;;;;;39.13;15.17;;;;;;;;;;5014955;28;20212;-42
2022/11/30 03:27:11;;;;;;;35.57;14.17;;;;;;;;;;5013606;28;20245;-41
2022/11/30 03:29:38;;;;;;;47.10;16.10;;;;;;;;;;5015303;28;20221;-42
2022/11/30 03:32:05;;;;;;;34.97;13.80;;;;;;;;;;5014348;28;20229;-41
2022/11/30 03:34:32;;;;;;;34.43;13.77;;;;;;;;;;5014870;28;20221;-43
2022/11/30 03:36:59;;;;;;;35.33;14.33;;;;;;;;;;5018183;28;20213;-42
2022/11/30 03:39:26;;;;;;;29.87;12.77;;;;;;;;;;5017992;28;20213;-44
2022/11/30 03:41:52;;;;;;;32.07;13.43;;;;;;;;;;5017586;28;20213;-41
2022/11/30 03:44:20;;;;;;;29.97;13.63;;;;;;;;;;5018591;28;20508;-41
2022/11/30 03:46:47;;;;;;;30.73;12.80;;;;;;;;;;5018226;28;20212;-41
2022/11/30 03:49:14;;;;;;;31.40;13.73;;;;;;;;;;5017927;28;20209;-41
2022/11/30 03:51:41;;;;;;;31.20;13.40;;;;;;;;;;5017513;28;20662;-41
2022/11/30 03:54:08;;;;;;;33.10;14.07;;;;;;;;;;5017757;28;20205;-41
2022/11/30 03:56:34;;;;;;;31.00;13.80;;;;;;;;;;5018048;28;20205;-43
2022/11/30 03:59:02;;;;;;;29.50;13.37;;;;;;;;;;5017574;28;20216;-41
2022/11/30 04:01:29;;;;;;;28.20;12.77;;;;;;;;;;5017716;28;20209;-41
2022/11/30 04:03:56;;;;;;;29.10;13.40;;;;;;;;;;5017494;28;20332;-42
2022/11/30 04:06:23;;;;;;;28.50;13.37;;;;;;;;;;5017689;28;20209;-41
2022/11/30 04:08:51;;;;;;;25.23;12.33;;;;;;;;;;5017658;28;20509;-40
2022/11/30 04:11:17;;;;;;;35.50;17.60;;;;;;;;;;5017479;28;20308;-42
2022/11/30 04:13:44;;;;;;;29.40;13.67;;;;;;;;;;5017468;28;20221;-41
2022/11/30 04:16:11;;;;;;;29.43;13.37;;;;;;;;;;5017414;28;20205;-43
2022/11/30 04:18:38;;;;;;;31.17;13.40;;;;;;;;;;5017386;28;20586;-41
2022/11/30 04:21:06;;;;;;;27.93;13.10;;;;;;;;;;5016726;28;20716;-41
2022/11/30 04:23:35;;;;;;;28.20;12.87;;;;;;;;;;5016244;28;20201;-41
2022/11/30 04:26:07;;;;;;;25.10;11.70;;;;;;;;;;5032980;28;20203;-42
2022/11/30 04:28:34;;;;;;;26.63;12.30;;;;;;;;;;5037078;28;20509;-41
2022/11/30 04:31:01;;;;;;;24.27;11.30;;;;;;;;;;5035219;28;20209;-41
2022/11/30 04:33:29;;;;;;;24.23;11.73;;;;;;;;;;5036310;28;20272;-42
2022/11/30 04:35:59;;;;;;;26.43;11.70;;;;;;;;;;5036782;28;20212;-44
2022/11/30 04:38:27;;;;;;;21.87;11.00;;;;;;;;;;5036599;28;20212;-42
2022/11/30 04:40:54;;;;;;;23.37;10.80;;;;;;;;;;5035971;28;20209;-41
2022/11/30 04:43:22;;;;;;;22.33;10.57;;;;;;;;;;5036242;28;20209;-41
2022/11/30 04:45:48;;;;;;;23.43;11.23;;;;;;;;;;5036008;28;20254;-42
2022/11/30 04:48:16;;;;;;;23.53;11.00;;;;;;;;;;5035653;28;20204;-43
2022/11/30 04:50:43;;;;;;;21.73;11.03;;;;;;;;;;5034425;28;20660;-42
2022/11/30 04:53:10;;;;;;;21.70;10.43;;;;;;;;;;5035665;28;20229;-42
2022/11/30 04:55:38;;;;;;;23.03;11.37;;;;;;;;;;5036097;28;20211;-42
2022/11/30 04:58:05;;;;;;;25.30;10.90;;;;;;;;;;5035726;28;20536;-41
2022/11/30 05:00:33;;;;;;;22.40;10.93;;;;;;;;;;5035562;28;20212;-43
2022/11/30 05:03:00;;;;;;;23.47;11.90;;;;;;;;;;5032060;28;20217;-42
2022/11/30 05:05:27;;;;;;;24.40;11.23;;;;;;;;;;5032242;28;20282;-41
2022/11/30 05:07:56;;;;;;;23.70;10.70;;;;;;;;;;5025671;28;20233;-42
2022/11/30 05:10:24;;;;;;;22.23;10.97;;;;;;;;;;5024809;28;20243;-41
2022/11/30 05:12:51;;;;;;;21.00;10.73;;;;;;;;;;5030987;28;20247;-41
2022/11/30 05:15:18;;;;;;;23.93;10.90;;;;;;;;;;5033363;28;20225;-42
2022/11/30 05:17:45;;;;;;;20.43;9.90;;;;;;;;;;5024650;28;20224;-41
2022/11/30 05:20:12;;;;;;;21.07;9.90;;;;;;;;;;5017777;28;20225;-41
2022/11/30 05:22:39;;;;;;;22.10;10.37;;;;;;;;;;5016051;28;20543;-41
2022/11/30 05:25:06;;;;;;;23.07;11.47;;;;;;;;;;5015051;28;20542;-42
2022/11/30 05:27:34;;;;;;;20.43;10.33;;;;;;;;;;5026836;28;20552;-43
2022/11/30 05:30:01;;;;;;;23.70;10.50;;;;;;;;;;5035079;28;20294;-42
2022/11/30 05:32:28;;;;;;;24.43;10.13;;;;;;;;;;5034973;28;20232;-42
2022/11/30 05:34:54;;;;;;;21.10;9.87;;;;;;;;;;5034537;28;20607;-41
2022/11/30 05:37:22;;;;;;;22.37;10.33;;;;;;;;;;5033524;28;20704;-42
2022/11/30 05:39:48;;;;;;;23.17;10.60;;;;;;;;;;5034824;28;20315;-44
2022/11/30 05:42:16;;;;;;;23.40;11.10;;;;;;;;;;5033786;28;20217;-43
2022/11/30 05:44:43;;;;;;;23.10;10.13;;;;;;;;;;5033392;28;20224;-41
2022/11/30 05:47:11;;;;;;;26.10;11.37;;;;;;;;;;5034619;28;20244;-43
2022/11/30 05:49:38;;;;;;;23.47;10.50;;;;;;;;;;5032767;28;20244;-41
2022/11/30 05:52:05;;;;;;;27.13;12.00;;;;;;;;;;5032909;28;20619;-42
2022/11/30 05:54:33;;;;;;;27.33;11.77;;;;;;;;;;5034020;28;20696;-41
2022/11/30 05:57:00;;;;;;;24.60;11.37;;;;;;;;;;5032635;28;20705;-42
2022/11/30 05:59:27;;;;;;;21.03;10.67;;;;;;;;;;5033706;28;20244;-42
2022/11/30 06:01:54;;;;;;;21.63;9.80;;;;;;;;;;5034286;28;20236;-41
2022/11/30 06:04:21;;;;;;;22.10;11.47;;;;;;;;;;5034036;28;20224;-41
2022/11/30 06:06:49;;;;;;;21.27;10.00;;;;;;;;;;5034353;28;20237;-40
2022/11/30 06:09:16;;;;;;;20.80;10.70;;;;;;;;;;5033933;28;20220;-45
2022/11/30 06:11:43;;;;;;;26.50;10.70;;;;;;;;;;5031426;28;20232;-40
2022/11/30 06:14:10;;;;;;;21.43;10.43;;;;;;;;;;5034314;28;20569;-42
2022/11/30 06:16:38;;;;;;;21.60;10.03;;;;;;;;;;5034902;28;20645;-41
2022/11/30 06:19:05;;;;;;;19.93;10.37;;;;;;;;;;5034389;28;20637;-41
2022/11/30 06:21:32;;;;;;;18.33;10.17;;;;;;;;;;5034397;28;20240;-40
2022/11/30 06:23:59;;;;;;;22.30;9.80;;;;;;;;;;5034442;28;20205;-42
2022/11/30 06:26:27;;;;;;;20.00;10.07;;;;;;;;;;5034876;28;20208;-40
2022/11/30 06:28:53;;;;;;;21.37;10.63;;;;;;;;;;5034665;28;20228;-40
2022/11/30 06:31:20;;;;;;;23.27;11.03;;;;;;;;;;5034658;28;20258;-40
2022/11/30 06:33:47;;;;;;;23.77;11.07;;;;;;;;;;5034631;28;20246;-40
2022/11/30 06:36:20;;;;;;;22.43;11.07;;;;;;;;;;5034611;28;20219;-40
2022/11/30 06:38:46;;;;;;;23.10;10.60;;;;;;;;;;5034633;28;20516;-40
2022/11/30 06:41:14;;;;;;;22.57;10.90;;;;;;;;;;5034484;28;20266;-40
2022/11/30 06:43:40;;;;;;;19.40;10.17;;;;;;;;;;5023990;28;20228;-42
2022/11/30 06:46:08;;;;;;;20.27;10.20;;;;;;;;;;5033711;28;20543;-40
2022/11/30 06:48:35;;;;;;;18.97;9.90;;;;;;;;;;5033403;28;20283;-41
2022/11/30 06:51:06;;;;;;;20.43;9.90;;;;;;;;;;5033775;28;20224;-42
2022/11/30 06:53:33;;;;;;;20.50;9.60;;;;;;;;;;5020810;28;20239;-39
2022/11/30 06:56:05;;;;;;;23.73;10.67;;;;;;;;;;5033546;28;20685;-40
2022/11/30 06:58:40;;;;;;;20.07;9.90;;;;;;;;;;5033072;28;20669;-40
2022/11/30 07:01:09;;;;;;;18.83;8.80;;;;;;;;;;5033942;28;20302;-41
2022/11/30 07:03:37;;;;;;;21.93;10.17;;;;;;;;;;5033528;28;20228;-41
2022/11/30 07:06:09;;;;;;;16.70;9.73;;;;;;;;;;5033988;28;20225;-41
2022/11/30 07:08:37;;;;;;;17.63;9.43;;;;;;;;;;5033916;28;20227;-40
2022/11/30 07:11:04;;;;;;;19.60;9.53;;;;;;;;;;5037548;28;20673;-41
2022/11/30 07:13:31;;;;;;;18.57;9.67;;;;;;;;;;5036633;28;20232;-40
2022/11/30 07:16:02;;;;;;;18.53;10.03;;;;;;;;;;5037491;28;20255;-41
2022/11/30 07:18:28;;;;;;;15.13;8.93;;;;;;;;;;5037101;28;20233;-40
2022/11/30 07:21:02;;;;;;;17.07;9.67;;;;;;;;;;5037623;28;20299;-40
2022/11/30 07:26:23;;;;;;;17.33;9.27;;;;;;;;;;5037169;28;20224;-40
2022/11/30 07:28:53;;;;;;;19.07;9.47;;;;;;;;;;5036557;28;20221;-43
2022/11/30 07:31:24;;;;;;;16.30;9.80;;;;;;;;;;5037538;28;20680;-42
2022/11/30 07:33:51;;;;;;;17.27;9.33;;;;;;;;;;5035967;28;20322;-41
2022/11/30 07:36:20;;;;;;;15.93;9.17;;;;;;;;;;5037271;28;20221;-41
2022/11/30 07:38:47;;;;;;;14.47;8.37;;;;;;;;;;5037043;28;20235;-40
2022/11/30 07:41:14;;;;;;;17.33;8.83;;;;;;;;;;5037010;28;20223;-41
2022/11/30 07:43:41;;;;;;;16.67;9.23;;;;;;;;;;5036512;28;20231;-40
2022/11/30 07:46:12;;;;;;;16.87;8.97;;;;;;;;;;5037016;28;20233;-41
2022/11/30 07:48:40;;;;;;;16.90;9.37;;;;;;;;;;5036972;28;20236;-41
2022/11/30 07:51:18;;;;;;;13.67;8.03;;;;;;;;;;5036649;28;20627;-42
2022/11/30 07:53:46;;;;;;;15.43;8.63;;;;;;;;;;5036574;28;20240;-43
2022/11/30 07:56:17;;;;;;;16.13;9.10;;;;;;;;;;5036782;28;20228;-40
2022/11/30 07:58:44;;;;;;;16.03;8.97;;;;;;;;;;5036289;28;20224;-40
2022/11/30 08:01:14;;;;;;;25.60;11.93;;;;;;;;;;5036657;28;20224;-40
2022/11/30 08:03:42;;;;;;;18.77;11.93;;;;;;;;;;5036610;28;20232;-40
2022/11/30 08:06:14;;;;;;;35.13;19.73;;;;;;;;;;5036677;28;20654;-42
2022/11/30 08:08:44;;;;;;;34.17;18.27;;;;;;;;;;5036608;28;20221;-40
2022/11/30 08:11:16;;;;;;;352.27;156.27;;;;;;;;;;5036499;28;20566;-40
2022/11/30 08:13:43;;;;;;;135.80;62.67;;;;;;;;;;5036265;28;20240;-40
2022/11/30 08:16:18;;;;;;;124.57;61.77;;;;;;;;;;5036305;28;20235;-40
2022/11/30 08:18:46;;;;;;;378.63;209.63;;;;;;;;;;5036181;28;20281;-41
2022/11/30 08:21:17;;;;;;;84.03;50.63;;;;;;;;;;5035511;28;20255;-39
2022/11/30 08:23:48;;;;;;;26.93;21.63;;;;;;;;;;5036595;28;20320;-40
2022/11/30 08:26:21;;;;;;;47.53;36.77;;;;;;;;;;5036152;28;20302;-40
2022/11/30 08:28:49;;;;;;;36.73;26.97;;;;;;;;;;5035964;28;20290;-41
2022/11/30 08:31:25;;;;;;;31.77;23.00;;;;;;;;;;5036158;28;20224;-40
2022/11/30 08:33:56;;;;;;;32.33;22.70;;;;;;;;;;5036205;28;20247;-39
2022/11/30 08:36:25;;;;;;;19.27;11.93;;;;;;;;;;5036263;28;20225;-40
2022/11/30 08:38:51;;;;;;;25.57;13.40;;;;;;;;;;5036043;28;20216;-39
2022/11/30 08:41:20;;;;;;;43.10;19.97;;;;;;;;;;5035630;28;20220;-40
2022/11/30 08:43:48;;;;;;;20.33;10.70;;;;;;;;;;5035736;28;20283;-41
2022/11/30 08:46:17;;;;;;;189.30;83.47;;;;;;;;;;5035891;28;20228;-40
2022/11/30 08:49:04;;;;;;;183.30;85.63;;;;;;;;;;5036111;28;20229;-40
2022/11/30 08:51:50;;;;;;;38.87;20.50;;;;;;;;;;5035686;28;20232;-42
2022/11/30 08:54:38;;;;;;;66.33;24.77;;;;;;;;;;5035528;28;20216;-41
2022/11/30 08:57:05;;;;;;;121.70;36.43;;;;;;;;;;5035336;28;20550;-39
2022/11/30 08:59:32;;;;;;;248.27;70.30;;;;;;;;;;5035331;28;20228;-41
2022/11/30 09:01:59;;;;;;;159.30;47.87;;;;;;;;;;5036144;28;20212;-40
2022/11/30 09:04:26;;;;;;;193.33;60.70;;;;;;;;;;5036041;28;20208;-39
2022/11/30 09:06:57;;;;;;;80.27;31.20;;;;;;;;;;5036312;28;20354;-39
2022/11/30 09:09:24;;;;;;;112.17;41.20;;;;;;;;;;5036098;28;20696;-42
2022/11/30 09:11:52;;;;;;;283.30;92.40;;;;;;;;;;5036083;28;20215;-39
2022/11/30 09:14:18;;;;;;;135.73;47.70;;;;;;;;;;5036343;28;20251;-40
2022/11/30 09:16:45;;;;;;;194.30;65.43;;;;;;;;;;5035749;28;20625;-40
2022/11/30 09:19:12;;;;;;;246.87;76.10;;;;;;;;;;5034673;28;20200;-40
2022/11/30 09:21:40;;;;;;;292.90;88.90;;;;;;;;;;5025752;28;20295;-42
2022/11/30 09:24:12;;;;;;;238.17;78.83;;;;;;;;;;5028720;28;20278;-40
2022/11/30 09:26:39;;;;;;;222.63;83.83;;;;;;;;;;5025570;28;20698;-46
2022/11/30 09:29:06;;;;;;;161.57;66.20;;;;;;;;;;5031813;28;20216;-40
2022/11/30 09:31:33;;;;;;;181.90;71.73;;;;;;;;;;5034927;28;20238;-40
2022/11/30 09:34:00;;;;;;;163.90;61.67;;;;;;;;;;5021739;28;20242;-41
2022/11/30 09:36:28;;;;;;;78.33;33.90;;;;;;;;;;5034351;28;20565;-41
2022/11/30 09:38:55;;;;;;;36.47;17.40;;;;;;;;;;5034526;28;20554;-41
2022/11/30 09:41:34;;;;;;;39.97;19.13;;;;;;;;;;5034942;28;20233;-43
2022/11/30 09:44:08;;;;;;;45.23;19.57;;;;;;;;;;5034642;28;20278;-40
2022/11/30 09:47:03;;;;;;;148.23;51.47;;;;;;;;;;5033611;28;20685;-43
2022/11/30 09:49:34;;;;;;;25.07;11.80;;;;;;;;;;5032222;28;20624;-40
2022/11/30 09:52:03;;;;;;;37.70;15.63;;;;;;;;;;5033797;28;20251;-40
2022/11/30 09:54:35;;;;;;;111.00;40.07;;;;;;;;;;5034467;28;20593;-40
2022/11/30 09:57:28;;;;;;;197.37;70.67;;;;;;;;;;5033482;28;20247;-41
2022/11/30 09:59:59;;;;;;;18.93;10.40;;;;;;;;;;5033626;28;20224;-40
2022/11/30 10:02:29;;;;;;;12.47;8.40;;;;;;;;;;5033630;28;20221;-41
2022/11/30 10:04:58;;;;;;;32.77;19.13;;;;;;;;;;5033839;28;20225;-41
2022/11/30 10:07:37;;;;;;;59.07;32.23;;;;;;;;;;5033500;28;20275;-39
2022/11/30 10:10:42;;;;;;;44.30;21.97;;;;;;;;;;5034689;28;20240;-40
2022/11/30 10:13:18;;;;;;;43.60;24.27;;;;;;;;;;5034453;28;20240;-40
2022/11/30 10:15:56;;;;;;;38.57;20.83;;;;;;;;;;5034350;28;20293;-40
2022/11/30 10:18:42;;;;;;;29.73;12.87;;;;;;;;;;5033412;28;20231;-41
2022/11/30 10:21:37;;;;;;;21.93;12.93;;;;;;;;;;5033861;28;20240;-39
2022/11/30 10:24:12;;;;;;;15.97;10.03;;;;;;;;;;5033702;28;20212;-40
2022/11/30 10:26:44;;;;;;;11.00;7.77;;;;;;;;;;5034020;28;20323;-41
2022/11/30 10:29:17;;;;;;;10.13;6.57;;;;;;;;;;5034702;28;20283;-40
2022/11/30 10:31:47;;;;;;;54.80;24.30;;;;;;;;;;5033648;28;20228;-40
2022/11/30 10:34:23;;;;;;;40.83;23.20;;;;;;;;;;5032792;28;20236;-40
2022/11/30 10:37:03;;;;;;;29.37;15.50;;;;;;;;;;5033905;28;20220;-41
2022/11/30 10:39:36;;;;;;;40.43;19.47;;;;;;;;;;5033495;28;20224;-39
2022/11/30 10:42:08;;;;;;;39.33;19.17;;;;;;;;;;5032971;28;20298;-41
2022/11/30 10:44:39;;;;;;;32.00;13.90;;;;;;;;;;5035007;28;20545;-43
2022/11/30 10:47:14;;;;;;;26.77;12.17;;;;;;;;;;5027039;28;20240;-42
2022/11/30 10:49:46;;;;;;;31.57;12.83;;;;;;;;;;5019408;28;20282;-47
2022/11/30 10:52:17;;;;;;;31.10;13.47;;;;;;;;;;5024901;28;20220;-43
2022/11/30 10:54:48;;;;;;;20.83;10.10;;;;;;;;;;5025951;28;20295;-43
2022/11/30 10:57:15;;;;;;;19.00;9.40;;;;;;;;;;5024387;28;20216;-42
2022/11/30 10:59:48;;;;;;;133.37;52.33;;;;;;;;;;5026573;28;20270;-40
2022/11/30 11:02:40;;;;;;;97.50;33.33;;;;;;;;;;5024581;28;20231;-40
2022/11/30 11:05:13;;;;;;;160.57;60.50;;;;;;;;;;5034927;28;20227;-42
2022/11/30 11:07:56;;;;;;;33.70;21.00;;;;;;;;;;5036789;28;20628;-43
2022/11/30 11:10:46;;;;;;;11.90;7.23;;;;;;;;;;5037080;28;20217;-41
2022/11/30 11:13:41;;;;;;;11.67;6.47;;;;;;;;;;5036536;28;20286;-44
2022/11/30 11:16:11;;;;;;;9.60;5.93;;;;;;;;;;5037337;28;20232;-41
2022/11/30 11:18:52;;;;;;;9.07;6.17;;;;;;;;;;5036585;28;20238;-43
2022/11/30 11:21:21;;;;;;;8.70;5.93;;;;;;;;;;5036015;28;20279;-40
2022/11/30 11:23:55;;;;;;;9.47;5.83;;;;;;;;;;5035494;28;20217;-40
2022/11/30 11:26:25;;;;;;;8.93;5.90;;;;;;;;;;5035676;28;20232;-41
2022/11/30 11:28:53;;;;;;;8.93;5.83;;;;;;;;;;5034107;28;20224;-41
2022/11/30 11:31:39;;;;;;;9.87;6.43;;;;;;;;;;5035588;28;20235;-41
2022/11/30 11:34:23;;;;;;;10.27;6.70;;;;;;;;;;5034236;28;20260;-42
2022/11/30 11:37:07;;;;;;;9.97;6.63;;;;;;;;;;5037109;28;20735;-40
2022/11/30 11:39:34;;;;;;;9.43;6.60;;;;;;;;;;5036268;28;20311;-42
2022/11/30 11:42:01;;;;;;;10.50;7.17;;;;;;;;;;5034312;28;20781;-43
2022/11/30 11:44:28;;;;;;;10.97;6.37;;;;;;;;;;5036129;28;20225;-43
2022/11/30 11:46:58;;;;;;;9.73;6.33;;;;;;;;;;5035735;28;20239;-41
2022/11/30 11:49:27;;;;;;;8.90;6.30;;;;;;;;;;5034773;28;20291;-41
2022/11/30 11:52:09;;;;;;;9.87;6.37;;;;;;;;;;5036358;28;20235;-41
2022/11/30 11:54:42;;;;;;;9.40;6.23;;;;;;;;;;5035564;28;20301;-42
2022/11/30 11:57:12;;;;;;;10.57;6.90;;;;;;;;;;5036306;28;20560;-44
2022/11/30 11:59:53;;;;;;;9.40;6.67;;;;;;;;;;5036047;28;20228;-43
2022/11/30 12:02:48;;;;;;;8.87;6.70;;;;;;;;;;5034423;28;20224;-41
2022/11/30 12:05:20;;;;;;;10.07;6.27;;;;;;;;;;5036233;28;20225;-40
2022/11/30 12:08:02;;;;;;;11.03;6.80;;;;;;;;;;5034609;28;20299;-40
2022/11/30 12:10:58;;;;;;;10.53;7.10;;;;;;;;;;5035548;28;20256;-40
2022/11/30 12:13:36;;;;;;;11.00;7.13;;;;;;;;;;5035482;28;20232;-41
2022/11/30 12:16:22;;;;;;;11.17;7.00;;;;;;;;;;5035814;28;20224;-41
2022/11/30 12:19:07;;;;;;;11.63;6.87;;;;;;;;;;5034044;28;20216;-42
2022/11/30 12:21:43;;;;;;;11.77;7.70;;;;;;;;;;5035004;28;20302;-41
2022/11/30 12:24:28;;;;;;;10.90;7.40;;;;;;;;;;5036421;28;20298;-41
2022/11/30 12:27:05;;;;;;;10.53;7.07;;;;;;;;;;5036320;28;20228;-41
2022/11/30 12:29:47;;;;;;;10.63;7.07;;;;;;;;;;5036615;28;20244;-41
2022/11/30 12:32:51;;;;;;;10.43;6.53;;;;;;;;;;5035518;28;20237;-41
2022/11/30 12:35:26;;;;;;;9.27;6.13;;;;;;;;;;5029589;28;20229;-42
2022/11/30 12:38:38;;;;;;;9.83;5.97;;;;;;;;;;5016001;28;20221;-41
2022/11/30 12:41:26;;;;;;;8.43;5.53;;;;;;;;;;5011006;28;20229;-42
2022/11/30 12:44:12;;;;;;;9.37;5.97;;;;;;;;;;5016153;28;20316;-42
2022/11/30 12:46:50;;;;;;;10.47;6.80;;;;;;;;;;5014695;28;20356;-47
2022/11/30 12:49:52;;;;;;;10.33;6.30;;;;;;;;;;5020112;28;20608;-42
2022/11/30 12:52:50;;;;;;;9.00;6.00;;;;;;;;;;5023156;28;21006;-44
2022/11/30 12:55:25;;;;;;;9.17;6.23;;;;;;;;;;5025499;28;20280;-41
2022/11/30 12:58:30;;;;;;;9.20;6.60;;;;;;;;;;5022485;28;20228;-41
2022/11/30 13:01:05;;;;;;;9.03;6.47;;;;;;;;;;5024972;28;20229;-43
2022/11/30 13:03:44;;;;;;;9.43;6.37;;;;;;;;;;5024144;28;20673;-44
2022/11/30 13:06:22;;;;;;;10.30;6.37;;;;;;;;;;5024156;28;20229;-41
2022/11/30 13:08:57;;;;;;;10.60;6.50;;;;;;;;;;5019967;28;20229;-47
2022/11/30 13:11:37;;;;;;;10.67;7.57;;;;;;;;;;5015794;28;20224;-41
2022/11/30 13:14:36;;;;;;;11.63;7.80;;;;;;;;;;5015467;28;20705;-41
2022/11/30 13:17:05;;;;;;;11.60;7.57;;;;;;;;;;4938685;28;20227;-41
2022/11/30 13:19:54;;;;;;;13.37;8.10;;;;;;;;;;4955407;28;20298;-41
2022/11/30 13:22:42;;;;;;;13.90;9.00;;;;;;;;;;4954912;28;20235;-43
2022/11/30 13:25:29;;;;;;;14.93;9.33;;;;;;;;;;4923911;29;20231;-41
2022/11/30 13:28:35;;;;;;;14.00;8.93;;;;;;;;;;4954940;28;20235;-42
2022/11/30 13:31:26;;;;;;;16.27;9.47;;;;;;;;;;4955142;28;20234;-43
2022/11/30 13:33:53;;;;;;;13.83;9.23;;;;;;;;;;4951543;29;20392;-41
2022/11/30 13:36:26;;;;;;;15.23;9.20;;;;;;;;;;4969156;28;20278;-43
2022/11/30 13:39:15;;;;;;;16.17;10.60;;;;;;;;;;4958240;28;20234;-40
2022/11/30 13:41:50;;;;;;;17.80;10.23;;;;;;;;;;4973783;28;20226;-45
2022/11/30 13:44:28;;;;;;;16.37;10.90;;;;;;;;;;4974630;28;20232;-41
2022/11/30 13:46:55;;;;;;;18.50;11.57;;;;;;;;;;4973509;28;20234;-43
2022/11/30 13:49:27;;;;;;;18.50;11.43;;;;;;;;;;4974298;28;20234;-41
2022/11/30 13:51:55;;;;;;;12.40;8.50;;;;;;;;;;4965171;28;20550;-43
2022/11/30 13:54:46;;;;;;;13.43;8.67;;;;;;;;;;5014125;28;20328;-43
2022/11/30 13:57:37;;;;;;;14.57;9.03;;;;;;;;;;5013615;28;20551;-42
2022/11/30 14:00:31;;;;;;;13.17;7.60;;;;;;;;;;5034266;28;20232;-43
2022/11/30 14:03:20;;;;;;;14.60;8.63;;;;;;;;;;5013962;28;20233;-43
2022/11/30 14:06:42;;;;;;;12.73;8.53;;;;;;;;;;5029494;28;20220;-40
2022/11/30 14:09:38;;;;;;;14.20;8.77;;;;;;;;;;5033606;28;20220;-43
2022/11/30 14:12:30;;;;;;;58.67;22.27;;;;;;;;;;5013756;28;20229;-40
2022/11/30 14:14:58;;;;;;;16.63;10.20;;;;;;;;;;5013832;28;20240;-40
2022/11/30 14:17:27;;;;;;;13.47;8.80;;;;;;;;;;5014016;28;20222;-41
2022/11/30 14:19:59;;;;;;;14.07;8.27;;;;;;;;;;5012718;28;20221;-45
2022/11/30 14:22:28;;;;;;;12.70;8.73;;;;;;;;;;5013646;28;20241;-43
2022/11/30 14:24:55;;;;;;;13.03;8.60;;;;;;;;;;5013414;28;20658;-43
2022/11/30 14:27:24;;;;;;;12.43;8.60;;;;;;;;;;5014308;28;20229;-43
2022/11/30 14:29:55;;;;;;;11.57;8.67;;;;;;;;;;5029365;28;20229;-42
2022/11/30 14:32:41;;;;;;;11.00;8.40;;;;;;;;;;5013318;28;20295;-42
2022/11/30 14:35:17;;;;;;;12.27;8.63;;;;;;;;;;5034461;28;20658;-45
2022/11/30 14:37:50;;;;;;;16.23;9.67;;;;;;;;;;5033733;28;20244;-43
2022/11/30 14:40:20;;;;;;;13.57;9.47;;;;;;;;;;5032924;28;20227;-43
2022/11/30 14:42:52;;;;;;;13.40;9.10;;;;;;;;;;5032857;28;20255;-42
2022/11/30 14:45:24;;;;;;;13.33;9.50;;;;;;;;;;5033662;28;20233;-43
2022/11/30 14:47:57;;;;;;;13.53;9.30;;;;;;;;;;5033524;28;20224;-42
2022/11/30 14:50:25;;;;;;;15.97;10.17;;;;;;;;;;5032956;28;20228;-43
2022/11/30 14:53:17;;;;;;;14.80;9.47;;;;;;;;;;5033496;28;20228;-42
2022/11/30 14:55:52;;;;;;;15.37;11.10;;;;;;;;;;5029866;28;20255;-41